Time;durP1;ratioP1;P1;durP2;ratioP2;P2;SDS_P1;SDS_P2;PMS_P1;PMS_P2;Temp;Humidity;BMP_temperature;BMP_pressure;BME280_temperature;BME280_humidity;BME280_pressure;Samples;Min_cycle;Max_cycle;Signal;HPM_P1;HPM_P2
2021/12/15 00:01:51;;;;;;;73.35;26.35;;;8.90;99.90;;;;;;6180347;23;20012;-81
2021/12/15 00:04:17;;;;;;;76.47;27.15;;;8.90;99.90;;;;;;6204678;23;20012;-81
2021/12/15 00:06:43;;;;;;;72.63;26.10;;;8.90;99.90;;;;;;6202499;23;20012;-81
2021/12/15 00:09:12;;;;;;;74.90;25.87;;;8.90;99.90;;;;;;6230138;23;20076;-81
2021/12/15 00:11:39;;;;;;;75.10;25.45;;;8.90;99.90;;;;;;6228416;23;20020;-81
2021/12/15 00:14:07;;;;;;;80.40;26.10;;;8.90;99.90;;;;;;6179209;23;20023;-81
2021/12/15 00:16:34;;;;;;;76.13;26.27;;;8.90;99.90;;;;;;6202904;23;20017;-80
2021/12/15 00:19:00;;;;;;;75.72;25.25;;;8.90;99.90;;;;;;6205190;23;20306;-80
2021/12/15 00:21:27;;;;;;;64.07;24.00;;;8.90;99.90;;;;;;6179818;23;20045;-81
2021/12/15 00:23:53;;;;;;;72.22;24.63;;;8.90;99.90;;;;;;6229718;23;20012;-81
2021/12/15 00:26:19;;;;;;;75.53;26.10;;;8.90;99.90;;;;;;6228030;23;20019;-81
2021/12/15 00:28:46;;;;;;;75.27;25.27;;;8.90;99.90;;;;;;6179146;23;20100;-81
2021/12/15 00:31:13;;;;;;;72.72;25.17;;;8.90;99.90;;;;;;6204445;23;20918;-81
2021/12/15 00:33:40;;;;;;;68.90;24.70;;;9.00;99.90;;;;;;6228133;23;20067;-81
2021/12/15 00:36:07;;;;;;;70.00;25.67;;;9.00;99.90;;;;;;6202946;23;20266;-81
2021/12/15 00:38:33;;;;;;;62.93;23.40;;;9.00;99.90;;;;;;6203042;23;20239;-81
2021/12/15 00:40:59;;;;;;;72.80;25.13;;;9.00;99.90;;;;;;6204827;23;20577;-81
2021/12/15 00:43:25;;;;;;;79.73;24.63;;;9.00;99.90;;;;;;6178831;23;20012;-81
2021/12/15 00:45:51;;;;;;;79.00;25.77;;;9.00;99.90;;;;;;6228520;23;20239;-81
2021/12/15 00:48:17;;;;;;;69.13;25.07;;;9.00;99.90;;;;;;6204694;23;20071;-81
2021/12/15 00:50:45;;;;;;;70.97;25.02;;;9.00;99.90;;;;;;6203405;23;20461;-81
2021/12/15 00:53:10;;;;;;;66.38;25.25;;;9.00;99.90;;;;;;6204741;23;20367;-81
2021/12/15 00:55:38;;;;;;;72.47;25.47;;;9.00;99.90;;;;;;6177892;23;20050;-81
2021/12/15 00:58:05;;;;;;;77.13;27.30;;;9.00;99.90;;;;;;6228296;23;20012;-81
2021/12/15 01:00:36;;;;;;;67.10;26.33;;;9.00;99.90;;;;;;6226711;23;20027;-81
2021/12/15 01:03:03;;;;;;;84.53;27.33;;;8.90;99.90;;;;;;6227936;23;20273;-81
2021/12/15 01:05:34;;;;;;;79.27;28.50;;;9.00;99.90;;;;;;6226549;23;20044;-81
2021/12/15 01:08:01;;;;;;;78.45;28.90;;;9.00;99.90;;;;;;6228775;23;20243;-81
2021/12/15 01:10:41;;;;;;;77.40;29.07;;;9.00;99.90;;;;;;6203987;23;20019;-81
2021/12/15 01:21:16;;;;;;;81.18;30.77;;;9.00;99.90;;;;;;6208024;23;20030;-81
2021/12/15 01:23:42;;;;;;;87.13;31.97;;;9.00;99.90;;;;;;6228785;23;20100;-81
2021/12/15 01:26:11;;;;;;;89.35;32.10;;;9.00;99.90;;;;;;6202635;23;20302;-81
2021/12/15 01:28:37;;;;;;;87.68;32.58;;;9.00;99.90;;;;;;6227400;23;20341;-81
2021/12/15 01:31:05;;;;;;;88.47;32.27;;;9.00;99.90;;;;;;6178174;23;20072;-81
2021/12/15 01:33:32;;;;;;;94.30;33.07;;;9.00;99.90;;;;;;6202964;23;20020;-81
2021/12/15 01:35:59;;;;;;;85.93;31.57;;;9.00;99.90;;;;;;6227891;23;20301;-81
2021/12/15 01:38:32;;;;;;;90.97;33.37;;;9.00;99.90;;;;;;6203363;23;20239;-81
2021/12/15 01:40:59;;;;;;;79.53;30.37;;;9.00;99.90;;;;;;6227573;23;20239;-81
2021/12/15 01:49:09;;;;;;;88.20;31.67;;;9.00;99.90;;;;;;6228465;23;20460;-81
2021/12/15 01:51:34;;;;;;;82.70;32.25;;;9.00;99.90;;;;;;6227887;23;20016;-81
2021/12/15 01:54:01;;;;;;;85.30;31.60;;;9.00;99.90;;;;;;6177589;23;20019;-81
2021/12/15 01:56:28;;;;;;;88.15;31.38;;;9.00;99.90;;;;;;6200615;23;20048;-81
2021/12/15 01:58:54;;;;;;;86.37;33.07;;;9.00;99.90;;;;;;6226970;23;20095;-81
2021/12/15 02:01:20;;;;;;;80.33;31.50;;;9.00;99.90;;;;;;6202612;23;20239;-80
2021/12/15 02:03:46;;;;;;;88.20;31.83;;;9.00;99.90;;;;;;6227547;23;20446;-81
2021/12/15 02:06:12;;;;;;;83.93;31.40;;;9.00;99.90;;;;;;6174957;23;20130;-81
2021/12/15 02:08:39;;;;;;;82.10;32.20;;;9.00;99.90;;;;;;6177387;23;20016;-81
2021/12/15 02:11:06;;;;;;;85.75;31.05;;;9.00;99.90;;;;;;6225984;23;20096;-81
2021/12/15 02:13:32;;;;;;;86.60;31.90;;;9.00;99.90;;;;;;6226908;23;20016;-81
2021/12/15 02:16:01;;;;;;;85.07;30.93;;;9.00;99.90;;;;;;6225054;23;20316;-81
2021/12/15 02:18:29;;;;;;;84.97;31.45;;;9.00;99.90;;;;;;6201051;23;20235;-81
2021/12/15 02:21:01;;;;;;;90.70;33.75;;;9.00;99.90;;;;;;6224334;23;20012;-81
2021/12/15 02:23:35;;;;;;;94.22;33.90;;;9.00;99.90;;;;;;6225472;23;20016;-80
2021/12/15 02:26:07;;;;;;;91.82;34.60;;;9.00;99.90;;;;;;6223405;23;20047;-80
2021/12/15 02:28:33;;;;;;;91.33;33.37;;;8.90;99.90;;;;;;6224850;23;20308;-80
2021/12/15 02:31:39;;;;;;;90.00;35.40;;;8.90;99.90;;;;;;6174684;23;20273;-80
2021/12/15 02:34:01;;;;;;;95.95;37.28;;;8.90;99.90;;;;;;6199587;23;20246;-80
2021/12/15 02:39:14;;;;;;;111.17;38.13;;;8.80;99.90;;;;;;6224428;23;20289;-80
2021/12/15 02:41:40;;;;;;;118.22;38.92;;;8.80;99.90;;;;;;6174708;23;20305;-80
2021/12/15 02:44:10;;;;;;;120.90;40.17;;;8.80;99.90;;;;;;6225072;23;20063;-80
2021/12/15 02:46:38;;;;;;;127.93;40.70;;;8.80;99.90;;;;;;6223182;23;20249;-80
2021/12/15 02:49:07;;;;;;;128.02;40.67;;;8.80;99.90;;;;;;6174760;23;20024;-81
2021/12/15 02:51:34;;;;;;;128.38;40.78;;;8.70;99.90;;;;;;6223666;23;20024;-81
2021/12/15 02:54:01;;;;;;;140.45;43.00;;;8.70;99.90;;;;;;6223541;23;20040;-81
2021/12/15 02:56:27;;;;;;;139.23;42.53;;;8.70;99.90;;;;;;6173928;23;20016;-81
2021/12/15 02:59:03;;;;;;;119.40;39.88;;;8.70;99.90;;;;;;6225620;23;20046;-81
2021/12/15 03:01:52;;;;;;;127.97;40.90;;;8.70;99.90;;;;;;6202461;23;20437;-81
2021/12/15 03:04:42;;;;;;;111.65;38.20;;;8.70;99.90;;;;;;6225590;23;20064;-81
2021/12/15 03:15:33;;;;;;;115.95;38.03;;;8.70;99.90;;;;;;6204738;23;20016;-81
2021/12/15 03:18:15;;;;;;;104.57;37.63;;;8.60;99.90;;;;;;6180078;23;20012;-81
2021/12/15 03:20:58;;;;;;;105.15;36.92;;;8.60;99.90;;;;;;6228904;23;20016;-81
2021/12/15 03:23:30;;;;;;;97.65;35.35;;;8.60;99.90;;;;;;6203469;23;20019;-81
2021/12/15 03:25:57;;;;;;;100.40;36.13;;;8.60;99.90;;;;;;6226510;23;20364;-81
2021/12/15 03:34:12;;;;;;;102.10;36.67;;;8.70;99.90;;;;;;6207270;23;20027;-81
2021/12/15 03:39:31;;;;;;;105.32;37.80;;;8.70;99.90;;;;;;6227743;23;20031;-81
2021/12/15 03:42:05;;;;;;;101.15;36.92;;;8.60;99.90;;;;;;6228379;23;20008;-81
2021/12/15 03:44:35;;;;;;;111.50;39.33;;;8.60;99.90;;;;;;6179449;23;20009;-81
2021/12/15 03:47:06;;;;;;;106.88;38.03;;;8.60;99.90;;;;;;6228855;23;20019;-81
2021/12/15 03:49:32;;;;;;;114.85;39.58;;;8.60;99.90;;;;;;6203994;23;20020;-81
2021/12/15 03:51:58;;;;;;;109.63;38.40;;;8.60;99.90;;;;;;6229168;23;20072;-81
2021/12/15 03:54:24;;;;;;;106.30;37.40;;;8.60;99.90;;;;;;6178308;23;20031;-81
2021/12/15 03:56:50;;;;;;;108.80;39.35;;;8.50;99.90;;;;;;6177404;23;20023;-81
2021/12/15 03:59:18;;;;;;;109.67;40.50;;;8.50;99.90;;;;;;6204323;23;20692;-81
2021/12/15 04:01:45;;;;;;;116.22;40.88;;;8.50;99.90;;;;;;6202904;23;20004;-81
2021/12/15 04:04:11;;;;;;;108.53;38.25;;;8.50;99.90;;;;;;6227147;23;20335;-81
2021/12/15 04:06:39;;;;;;;114.97;38.60;;;8.50;99.90;;;;;;6201309;23;20340;-81
2021/12/15 04:09:08;;;;;;;104.57;37.92;;;8.50;99.90;;;;;;6228507;23;20016;-81
2021/12/15 04:11:36;;;;;;;119.05;39.13;;;8.50;99.90;;;;;;6203592;23;20476;-81
2021/12/15 04:14:08;;;;;;;109.78;39.58;;;8.40;99.90;;;;;;6204182;23;20016;-81
2021/12/15 04:19:05;;;;;;;114.57;40.35;;;8.50;99.90;;;;;;6228678;23;20070;-81
2021/12/15 04:21:30;;;;;;;107.13;38.55;;;8.40;99.90;;;;;;6229791;23;20471;-81
2021/12/15 04:23:58;;;;;;;120.30;41.23;;;8.40;99.90;;;;;;6204859;23;20012;-81
2021/12/15 04:26:24;;;;;;;121.20;39.88;;;8.40;99.90;;;;;;6227532;23;20016;-81
2021/12/15 04:28:50;;;;;;;122.10;39.42;;;8.40;99.90;;;;;;6229741;23;20441;-81
2021/12/15 04:31:20;;;;;;;117.03;39.95;;;8.40;99.90;;;;;;6180381;23;20016;-81
2021/12/15 04:34:18;;;;;;;116.38;40.08;;;8.40;99.90;;;;;;6230085;23;20020;-81
2021/12/15 04:36:47;;;;;;;114.97;40.45;;;8.30;99.90;;;;;;6200850;23;20404;-81
2021/12/15 04:39:18;;;;;;;114.28;39.17;;;8.30;99.90;;;;;;6204738;23;20070;-81
2021/12/15 04:41:48;;;;;;;117.65;38.88;;;8.30;99.90;;;;;;6230394;23;20012;-81
2021/12/15 04:44:15;;;;;;;123.72;39.78;;;8.40;99.90;;;;;;6204817;23;20012;-81
2021/12/15 04:47:08;;;;;;;116.32;37.28;;;8.40;99.90;;;;;;6204148;23;20097;-81
2021/12/15 04:49:55;;;;;;;108.50;37.90;;;8.40;99.90;;;;;;6229157;23;20066;-81
2021/12/15 04:52:24;;;;;;;115.03;38.60;;;8.40;99.90;;;;;;6229982;23;20012;-81
2021/12/15 04:54:50;;;;;;;120.95;39.95;;;8.40;99.90;;;;;;6229129;23;20016;-81
2021/12/15 04:57:18;;;;;;;107.15;36.72;;;8.40;99.90;;;;;;6179171;23;20026;-81
2021/12/15 04:59:44;;;;;;;107.10;36.00;;;8.40;99.90;;;;;;6229266;23;20012;-81
2021/12/15 05:02:11;;;;;;;101.40;35.38;;;8.40;99.90;;;;;;6228178;22;20012;-81
2021/12/15 05:04:37;;;;;;;106.35;35.33;;;8.40;99.90;;;;;;6228540;23;20125;-81
2021/12/15 05:07:04;;;;;;;106.77;35.23;;;8.40;99.90;;;;;;6177739;23;20016;-81
2021/12/15 05:09:29;;;;;;;99.10;33.67;;;8.50;99.90;;;;;;6229320;23;20051;-81
2021/12/15 05:11:55;;;;;;;100.23;34.13;;;8.50;99.90;;;;;;6229396;23;20471;-81
2021/12/15 05:14:23;;;;;;;101.30;33.07;;;8.50;99.90;;;;;;6228718;23;20000;-81
2021/12/15 05:16:51;;;;;;;90.28;32.20;;;8.60;99.90;;;;;;6229390;23;20016;-81
2021/12/15 05:19:17;;;;;;;94.03;34.28;;;8.60;99.90;;;;;;6205403;23;20023;-81
2021/12/15 05:21:43;;;;;;;87.72;33.22;;;8.60;99.90;;;;;;6204381;23;20030;-81
2021/12/15 05:24:22;;;;;;;105.10;34.15;;;8.60;99.90;;;;;;6203699;23;20012;-81
2021/12/15 05:26:49;;;;;;;89.95;32.05;;;8.70;99.90;;;;;;6206498;23;20051;-81
2021/12/15 05:29:15;;;;;;;93.90;34.15;;;8.70;99.90;;;;;;6230313;23;20046;-81
2021/12/15 05:31:41;;;;;;;96.28;33.58;;;8.80;99.90;;;;;;6179471;23;20028;-81
2021/12/15 05:34:08;;;;;;;92.73;33.40;;;8.80;99.90;;;;;;6177626;23;20448;-81
2021/12/15 05:36:34;;;;;;;96.50;33.25;;;8.80;99.90;;;;;;6178809;23;20036;-81
2021/12/15 05:39:00;;;;;;;81.40;31.47;;;8.80;99.90;;;;;;6178741;23;20024;-81
2021/12/15 05:41:25;;;;;;;81.03;31.53;;;8.80;99.90;;;;;;6178413;23;20012;-81
2021/12/15 05:43:51;;;;;;;94.17;34.27;;;8.80;99.90;;;;;;6203633;23;20203;-81
2021/12/15 05:46:17;;;;;;;82.95;31.90;;;8.80;99.90;;;;;;6179834;23;20016;-81
2021/12/15 05:48:43;;;;;;;92.50;31.13;;;8.80;99.90;;;;;;6227904;23;20030;-81
2021/12/15 05:51:09;;;;;;;82.27;32.60;;;8.80;99.90;;;;;;6202437;23;20058;-81
2021/12/15 05:53:35;;;;;;;97.10;33.87;;;8.80;99.90;;;;;;6179329;23;20012;-80
2021/12/15 05:56:00;;;;;;;91.80;32.53;;;8.80;99.90;;;;;;6179882;23;20016;-80
2021/12/15 05:58:28;;;;;;;90.90;32.00;;;8.80;99.90;;;;;;6181276;23;20012;-80
2021/12/15 06:00:54;;;;;;;86.73;32.77;;;8.80;99.90;;;;;;6229681;23;20012;-80
2021/12/15 06:03:20;;;;;;;90.83;33.50;;;8.80;99.90;;;;;;6205281;23;20618;-80
2021/12/15 06:05:45;;;;;;;90.78;31.42;;;8.80;99.90;;;;;;6178873;23;20050;-80
2021/12/15 06:08:12;;;;;;;80.93;31.13;;;8.70;99.90;;;;;;6205047;23;20115;-81
2021/12/15 06:10:39;;;;;;;89.25;32.80;;;8.70;99.90;;;;;;6205513;23;20060;-82
2021/12/15 06:13:08;;;;;;;91.20;34.17;;;8.70;99.90;;;;;;6231063;23;20012;-82
2021/12/15 06:15:34;;;;;;;86.95;33.03;;;8.70;99.90;;;;;;6229270;23;20012;-82
2021/12/15 06:18:13;;;;;;;92.55;32.78;;;8.70;99.90;;;;;;6228045;23;20012;-81
2021/12/15 06:20:40;;;;;;;92.07;32.63;;;8.70;99.90;;;;;;6229066;23;20019;-81
2021/12/15 06:23:11;;;;;;;87.38;32.15;;;8.70;99.90;;;;;;6229910;23;20513;-82
2021/12/15 06:25:39;;;;;;;90.25;31.15;;;8.70;99.90;;;;;;6179099;23;20012;-81
2021/12/15 06:28:05;;;;;;;78.50;29.70;;;8.70;99.90;;;;;;6202062;23;20012;-81
2021/12/15 06:30:32;;;;;;;86.83;30.37;;;8.70;99.90;;;;;;6226068;23;20075;-81
2021/12/15 06:32:58;;;;;;;95.03;31.50;;;8.70;99.90;;;;;;6178134;23;20354;-81
2021/12/15 06:35:23;;;;;;;86.30;31.80;;;8.70;99.90;;;;;;6228451;23;20266;-81
2021/12/15 06:37:49;;;;;;;86.57;31.60;;;8.70;99.90;;;;;;6178677;23;20267;-81
2021/12/15 06:40:15;;;;;;;93.57;34.17;;;8.70;99.90;;;;;;6202613;23;20019;-81
2021/12/15 06:42:42;;;;;;;86.30;32.50;;;8.70;99.90;;;;;;6178250;23;20016;-81
2021/12/15 06:45:15;;;;;;;87.82;32.35;;;8.80;99.90;;;;;;6179700;23;20035;-81
2021/12/15 06:58:40;;;;;;;72.28;26.75;;;8.80;99.90;;;;;;6204531;23;20027;-81
2021/12/15 07:01:07;;;;;;;71.57;25.80;;;8.80;99.90;;;;;;6201751;23;20513;-81
2021/12/15 07:03:33;;;;;;;65.57;26.15;;;8.80;99.90;;;;;;6228470;23;20015;-81
2021/12/15 07:05:59;;;;;;;62.40;24.53;;;8.80;99.90;;;;;;6176124;23;20019;-81
2021/12/15 07:08:29;;;;;;;63.07;24.30;;;8.80;99.90;;;;;;6176256;23;20449;-81
2021/12/15 07:10:57;;;;;;;56.22;22.48;;;8.80;99.90;;;;;;6201243;23;20062;-81
2021/12/15 07:13:27;;;;;;;56.15;21.52;;;8.90;99.90;;;;;;6202911;23;20066;-80
2021/12/15 07:16:00;;;;;;;58.38;22.42;;;8.90;99.90;;;;;;6202185;23;20012;-81
2021/12/15 07:18:40;;;;;;;51.50;20.25;;;8.90;99.90;;;;;;6226161;23;20008;-81
2021/12/15 07:21:18;;;;;;;50.22;18.33;;;8.90;99.90;;;;;;6201173;23;20322;-81
2021/12/15 07:23:46;;;;;;;41.70;17.10;;;8.90;99.90;;;;;;6226344;23;20465;-81
2021/12/15 07:26:12;;;;;;;34.35;15.38;;;8.90;99.90;;;;;;6226343;23;20247;-81
2021/12/15 07:28:38;;;;;;;35.90;15.10;;;8.90;99.90;;;;;;6200019;23;20020;-81
2021/12/15 07:31:04;;;;;;;35.97;13.83;;;8.90;99.90;;;;;;6224159;23;20012;-81
2021/12/15 07:33:30;;;;;;;33.90;14.87;;;9.00;99.90;;;;;;6225727;23;20246;-81
2021/12/15 07:35:57;;;;;;;32.55;14.00;;;8.90;99.90;;;;;;6199503;23;20023;-81
2021/12/15 07:38:23;;;;;;;34.33;14.05;;;8.90;99.90;;;;;;6200031;23;20141;-81
2021/12/15 07:40:50;;;;;;;41.75;16.38;;;8.90;99.90;;;;;;6224328;23;20004;-81
2021/12/15 07:43:24;;;;;;;43.20;18.27;;;8.90;99.90;;;;;;6222789;23;20072;-81
2021/12/15 07:46:00;;;;;;;41.97;17.67;;;8.90;99.90;;;;;;6223272;23;20087;-81
2021/12/15 07:48:30;;;;;;;50.88;18.00;;;8.90;99.90;;;;;;6223329;23;20020;-81
2021/12/15 07:50:58;;;;;;;49.70;19.67;;;8.90;99.90;;;;;;6225524;23;20063;-81
2021/12/15 07:53:24;;;;;;;55.80;21.17;;;8.80;99.90;;;;;;6222260;23;20000;-81
2021/12/15 07:55:51;;;;;;;47.88;21.17;;;8.80;99.90;;;;;;6173109;23;20023;-81
2021/12/15 07:58:20;;;;;;;60.67;22.13;;;8.80;99.90;;;;;;6199329;23;20011;-81
2021/12/15 08:00:48;;;;;;;60.35;24.63;;;8.70;99.90;;;;;;6182757;23;20039;-81
2021/12/15 08:03:15;;;;;;;70.33;27.17;;;8.70;99.90;;;;;;6209575;23;20450;-81
2021/12/15 08:05:44;;;;;;;65.80;26.92;;;8.70;99.90;;;;;;6210530;23;20243;-81
2021/12/15 08:08:10;;;;;;;66.17;26.53;;;8.60;99.90;;;;;;6183182;23;20016;-81
2021/12/15 08:10:36;;;;;;;68.38;27.50;;;8.60;99.90;;;;;;6230544;23;20243;-81
2021/12/15 08:13:03;;;;;;;64.18;25.52;;;8.60;99.90;;;;;;6232928;23;20047;-81
2021/12/15 08:15:29;;;;;;;70.40;28.15;;;8.50;99.90;;;;;;6232760;23;20008;-81
2021/12/15 08:17:55;;;;;;;75.10;27.90;;;8.50;99.90;;;;;;6232221;23;20023;-81
2021/12/15 08:20:24;;;;;;;65.10;26.07;;;8.40;99.90;;;;;;6208593;23;20433;-81
2021/12/15 08:22:50;;;;;;;69.43;26.58;;;8.50;99.90;;;;;;6232964;23;20492;-81
2021/12/15 08:25:19;;;;;;;65.70;26.57;;;8.40;99.90;;;;;;6201421;23;20020;-81
2021/12/15 08:27:46;;;;;;;74.97;26.88;;;8.40;99.90;;;;;;6199642;23;20016;-81
2021/12/15 08:30:21;;;;;;;67.28;25.90;;;8.40;99.90;;;;;;6175403;23;20020;-82
2021/12/15 08:32:48;;;;;;;;;;;8.30;99.90;;;;;;6228013;23;20016;-82
2021/12/15 08:35:17;;;;;;;71.70;26.80;;;8.30;99.90;;;;;;6203359;23;19951;-81
2021/12/15 08:37:42;;;;;;;70.03;25.75;;;8.30;99.90;;;;;;6226145;23;20068;-81
2021/12/15 08:40:09;;;;;;;72.60;26.37;;;8.30;99.90;;;;;;6176283;23;20016;-81
2021/12/15 08:42:35;;;;;;;78.38;26.80;;;8.40;99.90;;;;;;6202675;23;20008;-81
2021/12/15 08:45:01;;;;;;;62.67;25.63;;;8.40;99.90;;;;;;6178732;23;20024;-81
2021/12/15 08:47:27;;;;;;;69.30;25.93;;;8.50;99.90;;;;;;6203039;23;20023;-81
2021/12/15 08:49:53;;;;;;;75.03;25.87;;;8.50;99.90;;;;;;6202597;23;20044;-81
2021/12/15 08:52:19;;;;;;;60.05;23.40;;;8.50;99.90;;;;;;6202059;23;20016;-81
2021/12/15 08:54:44;;;;;;;59.50;23.65;;;8.60;99.90;;;;;;6203029;23;20087;-81
2021/12/15 08:57:10;;;;;;;61.47;23.87;;;8.60;99.90;;;;;;6180511;23;20027;-81
2021/12/15 08:59:37;;;;;;;59.03;22.10;;;8.70;99.90;;;;;;6205435;23;20043;-81
2021/12/15 09:02:04;;;;;;;62.85;23.95;;;8.70;99.90;;;;;;6180494;22;20015;-81
2021/12/15 09:04:29;;;;;;;55.38;22.77;;;8.70;99.90;;;;;;6202714;23;20114;-81
2021/12/15 09:06:55;;;;;;;50.87;21.43;;;8.80;99.90;;;;;;6203224;23;20019;-81
2021/12/15 09:09:21;;;;;;;51.97;21.70;;;8.90;99.90;;;;;;6180342;23;20016;-81
2021/12/15 09:11:49;;;;;;;52.47;21.90;;;9.00;99.90;;;;;;6206606;23;20023;-81
2021/12/15 09:14:15;;;;;;;51.35;21.70;;;9.00;99.90;;;;;;6182193;23;20059;-81
2021/12/15 09:16:44;;;;;;;53.97;22.57;;;9.00;99.90;;;;;;6232183;23;20016;-81
2021/12/15 09:19:10;;;;;;;53.95;21.58;;;9.00;99.90;;;;;;6232650;23;20253;-81
2021/12/15 09:21:37;;;;;;;51.93;21.90;;;9.00;99.90;;;;;;6180474;23;20016;-81
2021/12/15 09:24:06;;;;;;;60.07;21.73;;;9.00;99.90;;;;;;6229000;23;20000;-81
2021/12/15 09:26:33;;;;;;;50.53;21.47;;;9.00;99.90;;;;;;6229640;23;20334;-81
2021/12/15 09:29:00;;;;;;;47.88;22.58;;;9.00;99.90;;;;;;6183045;23;20575;-81
2021/12/15 09:31:26;;;;;;;43.47;21.02;;;9.00;99.90;;;;;;6207865;23;20044;-81
2021/12/15 09:33:54;;;;;;;46.25;21.08;;;9.00;99.90;;;;;;6209502;23;20051;-81
2021/12/15 09:36:21;;;;;;;45.75;20.73;;;9.00;99.90;;;;;;6208664;23;20016;-81
2021/12/15 09:38:53;;;;;;;50.97;20.27;;;9.00;99.90;;;;;;6233658;23;20008;-81
2021/12/15 09:41:19;;;;;;;49.95;21.98;;;9.00;99.90;;;;;;6231618;23;20247;-81
2021/12/15 09:43:47;;;;;;;47.15;20.35;;;9.00;99.90;;;;;;6181801;23;20012;-82
2021/12/15 09:46:25;;;;;;;49.20;19.73;;;8.90;99.90;;;;;;6205926;23;20025;-82
2021/12/15 10:05:11;;;;;;;41.60;17.07;;;9.10;99.90;;;;;;6234133;23;20016;-81
2021/12/15 10:10:47;;;;;;;36.33;15.68;;;9.20;99.90;;;;;;6214616;23;20251;-81
2021/12/15 10:19:22;;;;;;;35.23;14.70;;;9.40;99.90;;;;;;6236020;23;20103;-81
2021/12/15 10:22:03;;;;;;;38.97;14.57;;;9.40;99.90;;;;;;6236543;23;20242;-81
2021/12/15 10:24:35;;;;;;;28.20;13.60;;;9.50;99.90;;;;;;6236366;23;20250;-81
2021/12/15 10:27:04;;;;;;;27.57;13.30;;;9.50;99.90;;;;;;6235975;23;20247;-81
2021/12/15 10:29:30;;;;;;;27.63;12.37;;;9.50;99.90;;;;;;6237589;23;20247;-81
2021/12/15 10:31:59;;;;;;;25.57;11.90;;;9.50;99.90;;;;;;6185699;23;20251;-81
2021/12/15 10:34:25;;;;;;;23.73;11.27;;;9.50;99.90;;;;;;6210690;23;20353;-81
2021/12/15 10:36:50;;;;;;;19.10;11.20;;;9.60;99.90;;;;;;6237753;23;20263;-81
2021/12/15 10:39:16;;;;;;;27.27;10.17;;;9.60;99.90;;;;;;6213713;23;20295;-81
2021/12/15 10:41:44;;;;;;;21.10;9.27;;;9.70;99.90;;;;;;6187236;23;20012;-81
2021/12/15 10:44:13;;;;;;;20.97;9.13;;;9.70;99.90;;;;;;6188330;23;20019;-81
2021/12/15 10:46:40;;;;;;;18.30;8.93;;;9.70;99.90;;;;;;6211359;23;20247;-81
2021/12/15 10:49:17;;;;;;;18.43;8.77;;;9.70;99.90;;;;;;6212275;23;20290;-81
2021/12/15 10:51:59;;;;;;;22.47;8.83;;;9.80;99.90;;;;;;6238659;23;20250;-81
2021/12/15 10:54:28;;;;;;;21.13;7.57;;;9.80;99.90;;;;;;6212702;23;20251;-81
2021/12/15 10:57:03;;;;;;;15.07;7.60;;;9.90;99.90;;;;;;6212571;23;20274;-80
2021/12/15 10:59:40;;;;;;;18.90;7.70;;;9.90;99.90;;;;;;6211965;23;20226;-81
2021/12/15 11:02:16;;;;;;;15.33;7.17;;;9.90;99.90;;;;;;6236948;22;20332;-82
2021/12/15 11:04:52;;;;;;;20.07;7.77;;;9.90;99.90;;;;;;6212393;23;20243;-81
2021/12/15 11:07:23;;;;;;;18.70;7.50;;;9.90;99.90;;;;;;6201657;23;20239;-81
2021/12/15 11:09:54;;;;;;;17.03;6.43;;;10.00;99.90;;;;;;6237932;23;20250;-81
2021/12/15 11:12:37;;;;;;;16.10;7.00;;;10.00;99.90;;;;;;6211038;23;20239;-81
2021/12/15 11:15:14;;;;;;;17.60;6.53;;;10.00;99.90;;;;;;6207987;23;20769;-81
2021/12/15 11:17:50;;;;;;;14.97;6.47;;;10.00;99.90;;;;;;6232766;23;20270;-81
2021/12/15 11:20:30;;;;;;;16.23;6.17;;;10.00;99.90;;;;;;6209270;23;20249;-81
2021/12/15 11:23:13;;;;;;;12.47;5.30;;;10.00;99.90;;;;;;6206131;23;20239;-81
2021/12/15 11:25:50;;;;;;;14.17;4.97;;;10.00;99.90;;;;;;6207698;23;20239;-81
2021/12/15 11:28:28;;;;;;;14.17;5.17;;;10.10;99.90;;;;;;6203633;23;20243;-81
2021/12/15 11:30:56;;;;;;;10.90;4.73;;;10.10;99.90;;;;;;6230435;23;20245;-81
2021/12/15 11:33:37;;;;;;;14.97;5.27;;;10.10;99.90;;;;;;6205997;23;20239;-81
2021/12/15 11:36:19;;;;;;;15.97;6.07;;;10.20;99.90;;;;;;6206071;23;20263;-81
2021/12/15 11:38:48;;;;;;;13.67;5.10;;;10.20;99.90;;;;;;6206537;23;20250;-81
2021/12/15 11:41:23;;;;;;;10.67;3.87;;;10.20;99.90;;;;;;6203866;23;20254;-81
2021/12/15 11:43:54;;;;;;;10.23;3.20;;;10.20;99.90;;;;;;6203514;23;20282;-81
2021/12/15 11:46:35;;;;;;;10.37;3.07;;;10.30;99.90;;;;;;6205332;23;20043;-81
2021/12/15 11:49:29;;;;;;;8.00;2.40;;;10.30;99.90;;;;;;6224679;23;20267;-81
2021/12/15 11:52:22;;;;;;;7.30;2.37;;;10.20;99.90;;;;;;6199450;23;20267;-82
2021/12/15 11:54:50;;;;;;;8.47;2.47;;;10.20;99.90;;;;;;6191915;23;20251;-81
2021/12/15 11:57:27;;;;;;;8.63;1.77;;;10.20;99.90;;;;;;6173322;23;20268;-81
2021/12/15 12:00:11;;;;;;;6.30;2.00;;;10.10;99.90;;;;;;6197290;23;20669;-81
2021/12/15 12:02:42;;;;;;;9.32;1.75;;;10.10;99.90;;;;;;6201667;23;20243;-81
2021/12/15 12:05:11;;;;;;;7.90;2.07;;;10.00;99.90;;;;;;6200035;23;20087;-81
2021/12/15 12:07:59;;;;;;;6.53;2.10;;;10.00;99.90;;;;;;6198494;23;20246;-81
2021/12/15 12:10:47;;;;;;;8.10;2.07;;;10.00;99.90;;;;;;6200200;23;20254;-81
2021/12/15 12:13:19;;;;;;;5.97;1.80;;;9.90;99.90;;;;;;6199752;23;20272;-81
2021/12/15 12:15:48;;;;;;;6.37;2.00;;;9.90;99.90;;;;;;6225499;23;20247;-81
2021/12/15 12:18:20;;;;;;;5.73;2.03;;;9.80;99.90;;;;;;6200928;23;20307;-81
2021/12/15 12:21:03;;;;;;;7.87;2.10;;;9.80;99.90;;;;;;6198704;23;20244;-81
2021/12/15 12:23:30;;;;;;;8.37;1.93;;;9.80;99.90;;;;;;6198198;23;20271;-82
2021/12/15 12:26:01;;;;;;;10.17;2.20;;;9.80;99.90;;;;;;6197372;23;20327;-82
2021/12/15 12:28:36;;;;;;;7.17;2.13;;;9.80;99.90;;;;;;6198494;23;20692;-82
2021/12/15 12:31:09;;;;;;;6.53;1.87;;;9.80;99.90;;;;;;6198845;23;20251;-82
2021/12/15 12:33:35;;;;;;;7.03;1.90;;;9.80;99.90;;;;;;6198503;23;20236;-82
2021/12/15 12:36:11;;;;;;;7.73;2.40;;;9.80;99.90;;;;;;6195203;23;20259;-82
2021/12/15 12:38:41;;;;;;;5.53;2.00;;;9.80;99.90;;;;;;6194153;23;20255;-82
2021/12/15 12:41:18;;;;;;;5.37;1.30;;;9.80;99.90;;;;;;6195124;23;20244;-81
2021/12/15 12:43:48;;;;;;;5.77;1.40;;;9.80;99.90;;;;;;6220836;23;20703;-82
2021/12/15 12:46:21;;;;;;;8.40;1.57;;;9.80;99.90;;;;;;6218131;23;20244;-82
2021/12/15 12:59:36;;;;;;;5.03;1.33;;;9.90;99.90;;;;;;6224043;23;20283;-82
2021/12/15 13:02:10;;;;;;;5.03;1.60;;;9.90;99.90;;;;;;6223969;23;20239;-82
2021/12/15 13:04:39;;;;;;;4.75;1.23;;;9.90;99.90;;;;;;6174591;23;20240;-82
2021/12/15 13:07:05;;;;;;;5.73;1.80;;;9.90;99.90;;;;;;6198960;23;20024;-82
2021/12/15 13:09:50;;;;;;;5.73;1.40;;;9.90;99.90;;;;;;6176856;23;20248;-82
2021/12/15 13:12:23;;;;;;;5.28;1.27;;;9.80;99.90;;;;;;6200211;23;20579;-81
2021/12/15 13:14:49;;;;;;;6.80;1.13;;;9.80;99.90;;;;;;6199261;23;20027;-82
2021/12/15 13:17:23;;;;;;;6.40;1.30;;;9.80;99.90;;;;;;6199752;23;20259;-82
2021/12/15 13:19:51;;;;;;;4.53;1.13;;;9.80;99.90;;;;;;6176432;23;20047;-82
2021/12/15 13:22:41;;;;;;;3.93;1.33;;;9.80;99.90;;;;;;6200917;23;20416;-82
2021/12/15 13:31:11;;;;;;;4.47;2.33;;;9.80;99.90;;;;;;6221374;23;20248;-82
2021/12/15 13:33:42;;;;;;;4.53;1.23;;;9.80;99.90;;;;;;6198948;23;20315;-82
2021/12/15 13:36:31;;;;;;;4.23;1.33;;;9.70;99.90;;;;;;6226513;23;20068;-82
2021/12/15 13:39:05;;;;;;;6.10;1.30;;;9.70;99.90;;;;;;6221081;23;20251;-82
2021/12/15 13:42:00;;;;;;;6.15;1.42;;;9.70;99.90;;;;;;6196237;23;20311;-82
2021/12/15 13:44:52;;;;;;;5.40;1.27;;;9.70;99.90;;;;;;6198387;23;20017;-82
2021/12/15 13:47:20;;;;;;;6.93;1.80;;;9.60;99.90;;;;;;6219315;23;20020;-83
2021/12/15 13:49:50;;;;;;;4.30;1.40;;;9.60;99.90;;;;;;6201364;23;20643;-83
2021/12/15 13:52:31;;;;;;;3.95;1.20;;;9.60;99.90;;;;;;6202564;23;20564;-84
2021/12/15 13:55:20;;;;;;;4.43;1.00;;;9.60;99.90;;;;;;6203588;23;20016;-83
2021/12/15 13:57:46;;;;;;;4.85;1.00;;;9.50;99.90;;;;;;6202368;23;20009;-84
2021/12/15 14:00:14;;;;;;;2.77;1.00;;;9.50;99.90;;;;;;6200681;23;20027;-84
2021/12/15 14:03:14;;;;;;;7.53;1.13;;;9.50;99.90;;;;;;6201726;23;20341;-84
2021/12/15 14:05:52;;;;;;;1.77;0.80;;;9.50;99.90;;;;;;6201413;23;20240;-84
2021/12/15 14:08:31;;;;;;;3.70;1.50;;;9.50;99.90;;;;;;6227839;23;20584;-84
2021/12/15 14:11:07;;;;;;;3.67;0.90;;;9.50;99.90;;;;;;6202489;23;20723;-84
2021/12/15 14:13:59;;;;;;;4.93;0.90;;;9.50;99.90;;;;;;6203716;23;20246;-84
2021/12/15 14:16:45;;;;;;;7.68;0.90;;;9.50;99.90;;;;;;6146051;23;20012;-84
2021/12/15 14:19:36;;;;;;;2.47;0.70;;;9.50;99.90;;;;;;6201357;23;20291;-84
2021/12/15 14:22:09;;;;;;;4.40;1.17;;;9.40;99.90;;;;;;6200855;23;20243;-84
2021/12/15 14:24:37;;;;;;;4.72;0.85;;;9.50;99.90;;;;;;6176051;23;20274;-84